createdAt,value
2022-12-31T00:00:15.731Z,4.17
2022-12-31T00:03:05.723Z,4.11
2022-12-31T00:05:37.198Z,4.06
2022-12-31T00:08:08.003Z,4.06
2022-12-31T00:10:41.845Z,4.03
2022-12-31T00:13:12.233Z,4.02
2022-12-31T00:15:44.369Z,4.01
2022-12-31T00:18:14.062Z,4.00
2022-12-31T00:20:44.203Z,4.02
2022-12-31T00:23:14.081Z,4.09
2022-12-31T00:25:44.137Z,4.10
2022-12-31T00:28:13.884Z,4.11
2022-12-31T00:30:45.499Z,4.20
2022-12-31T00:33:15.201Z,4.22
2022-12-31T00:35:45.473Z,4.24
2022-12-31T00:38:15.184Z,4.25
2022-12-31T00:40:45.294Z,4.25
2022-12-31T00:43:14.926Z,4.26
2022-12-31T00:45:46.463Z,4.21
2022-12-31T00:48:16.074Z,4.21
2022-12-31T00:50:46.654Z,4.20
2022-12-31T00:53:16.426Z,4.25
2022-12-31T00:55:46.507Z,4.22
2022-12-31T00:58:16.134Z,4.23
2022-12-31T01:00:47.893Z,4.22
2022-12-31T01:03:17.674Z,4.31
2022-12-31T01:05:47.714Z,4.33
2022-12-31T01:08:17.461Z,4.43
2022-12-31T01:11:07.323Z,4.45
2022-12-31T01:13:37.056Z,4.49
2022-12-31T01:16:12.383Z,4.47
2022-12-31T01:18:42.412Z,4.50
2022-12-31T01:21:13.357Z,4.48
2022-12-31T01:23:42.963Z,4.55
2022-12-31T01:26:14.732Z,4.52
2022-12-31T01:28:44.664Z,4.53
2022-12-31T01:31:17.226Z,4.59
2022-12-31T01:33:47.502Z,4.59
2022-12-31T01:36:23.532Z,4.55
2022-12-31T01:38:55.053Z,4.58
2022-12-31T01:41:25.816Z,4.62
2022-12-31T01:43:57.052Z,4.65
2022-12-31T01:46:30.664Z,4.70
2022-12-31T01:49:01.944Z,4.73
2022-12-31T01:51:33.168Z,4.77
2022-12-31T01:54:03.543Z,4.78
2022-12-31T01:56:34.436Z,4.86
2022-12-31T01:59:07.045Z,4.89
2022-12-31T02:01:39.474Z,4.92
2022-12-31T02:04:10.944Z,4.91
2022-12-31T02:06:51.504Z,4.88
2022-12-31T02:09:21.715Z,4.87
2022-12-31T02:11:52.069Z,4.91
2022-12-31T02:14:23.164Z,4.92
2022-12-31T02:16:58.826Z,4.93
2022-12-31T02:19:49.283Z,4.93
2022-12-31T02:22:24.428Z,4.94
2022-12-31T02:25:06.178Z,4.89
2022-12-31T02:27:42.863Z,4.84
2022-12-31T02:30:15.735Z,4.81
2022-12-31T02:33:02.633Z,4.89
2022-12-31T02:35:39.053Z,4.93
2022-12-31T02:38:12.831Z,4.93
2022-12-31T02:40:42.752Z,4.82
2022-12-31T02:43:12.791Z,4.83
2022-12-31T02:45:46.865Z,4.84
2022-12-31T02:48:42.751Z,4.90
2022-12-31T02:51:27.788Z,5.00
2022-12-31T02:54:03.135Z,4.95
2022-12-31T02:56:38.058Z,4.93
2022-12-31T02:59:27.318Z,4.86
2022-12-31T03:02:19.873Z,4.92
2022-12-31T03:04:52.294Z,4.94
2022-12-31T03:07:23.707Z,4.95
2022-12-31T03:09:53.724Z,4.95
2022-12-31T03:12:42.647Z,5.02
2022-12-31T03:15:21.625Z,5.00
2022-12-31T03:17:57.041Z,4.99
2022-12-31T03:20:46.722Z,5.02
2022-12-31T03:23:19.934Z,5.07
2022-12-31T03:25:49.297Z,5.10
2022-12-31T03:28:20.329Z,5.13
2022-12-31T03:30:52.616Z,5.22
2022-12-31T03:33:23.933Z,5.07
2022-12-31T03:35:54.408Z,5.00
2022-12-31T03:38:24.294Z,4.89
2022-12-31T03:40:54.777Z,4.81
2022-12-31T03:43:24.496Z,4.79
2022-12-31T03:45:55.242Z,4.84
2022-12-31T03:48:26.580Z,4.87
2022-12-31T03:50:56.731Z,4.78
2022-12-31T03:53:26.502Z,4.84
2022-12-31T03:55:57.112Z,4.90
2022-12-31T03:58:26.864Z,4.92
2022-12-31T04:00:57.204Z,4.97
2022-12-31T04:03:29.131Z,5.00
2022-12-31T04:05:59.154Z,5.05
2022-12-31T04:08:28.865Z,5.00
2022-12-31T04:10:58.898Z,5.02
2022-12-31T04:13:28.663Z,5.00
2022-12-31T04:15:58.725Z,5.07
2022-12-31T04:18:30.834Z,5.05
2022-12-31T04:21:02.993Z,5.03
2022-12-31T04:23:32.636Z,5.05
2022-12-31T04:26:02.723Z,5.06
2022-12-31T04:28:32.355Z,5.16
2022-12-31T04:31:04.726Z,5.20
2022-12-31T04:33:35.948Z,5.22
2022-12-31T04:36:07.190Z,5.22
2022-12-31T04:38:36.824Z,5.29
2022-12-31T04:41:21.243Z,5.22
2022-12-31T04:43:51.514Z,5.16
2022-12-31T04:46:22.876Z,5.24
2022-12-31T04:48:54.197Z,5.28
2022-12-31T04:51:25.076Z,5.32
2022-12-31T04:53:54.987Z,5.37
2022-12-31T04:56:25.371Z,5.37
2022-12-31T04:58:55.210Z,5.38
2022-12-31T05:01:25.700Z,5.39
2022-12-31T05:03:56.925Z,5.49
2022-12-31T05:06:26.939Z,5.48
2022-12-31T05:08:56.679Z,5.51
2022-12-31T05:11:26.791Z,5.49
2022-12-31T05:13:56.447Z,5.59
2022-12-31T05:16:28.564Z,5.61
2022-12-31T05:18:59.684Z,5.57
2022-12-31T05:21:31.717Z,5.60
2022-12-31T05:24:01.387Z,5.60
2022-12-31T05:26:31.456Z,5.59
2022-12-31T05:29:01.836Z,5.63
2022-12-31T05:31:32.137Z,5.66
2022-12-31T05:34:03.203Z,5.73
2022-12-31T05:36:33.276Z,5.69
2022-12-31T05:39:02.965Z,5.68
2022-12-31T05:41:32.929Z,5.72
2022-12-31T05:44:02.655Z,5.75
2022-12-31T05:46:32.546Z,5.84
2022-12-31T05:49:03.716Z,5.83
2022-12-31T05:51:33.827Z,5.85
2022-12-31T05:54:03.494Z,5.87
2022-12-31T05:56:34.172Z,5.94
2022-12-31T05:59:03.971Z,5.97
2022-12-31T06:01:34.276Z,5.98
2022-12-31T06:04:06.363Z,6.02
2022-12-31T06:06:37.635Z,6.02
2022-12-31T06:09:07.274Z,6.02
2022-12-31T06:11:37.445Z,6.05
2022-12-31T06:14:07.196Z,6.01
2022-12-31T06:16:37.511Z,6.08
2022-12-31T06:19:08.702Z,6.11
2022-12-31T06:21:39.405Z,6.17
2022-12-31T06:24:10.238Z,6.18
2022-12-31T06:26:40.792Z,6.17
2022-12-31T06:29:10.743Z,6.19
2022-12-31T06:31:40.635Z,6.14
2022-12-31T06:34:12.760Z,6.14
2022-12-31T06:36:42.835Z,6.15
2022-12-31T06:39:12.561Z,6.13
2022-12-31T06:41:42.639Z,6.23
2022-12-31T06:44:12.497Z,6.24
2022-12-31T06:46:42.722Z,6.19
2022-12-31T06:49:14.195Z,6.20
2022-12-31T06:51:46.383Z,6.16
2022-12-31T06:54:16.448Z,6.09
2022-12-31T06:56:46.824Z,6.10
2022-12-31T06:59:24.553Z,6.04
2022-12-31T07:02:02.929Z,6.11
2022-12-31T07:04:46.251Z,6.09
2022-12-31T07:07:18.638Z,6.03
2022-12-31T07:09:54.835Z,5.98
2022-12-31T07:12:33.047Z,6.08
2022-12-31T07:15:06.683Z,6.09
2022-12-31T07:17:40.097Z,6.24
2022-12-31T07:20:14.345Z,6.23
2022-12-31T07:22:44.846Z,6.17
2022-12-31T07:25:15.128Z,6.18
2022-12-31T07:27:51.981Z,6.13
2022-12-31T07:30:22.851Z,6.20
2022-12-31T07:33:03.376Z,6.23
2022-12-31T07:35:38.530Z,6.32
2022-12-31T07:38:14.334Z,6.44
2022-12-31T07:40:54.011Z,6.50
2022-12-31T07:43:27.896Z,6.53
2022-12-31T07:46:02.069Z,6.57
2022-12-31T07:48:32.911Z,6.53
2022-12-31T07:51:04.925Z,6.59
2022-12-31T07:53:35.196Z,6.66
2022-12-31T07:56:06.352Z,6.77
2022-12-31T07:58:51.145Z,6.89
2022-12-31T08:01:29.377Z,6.91
2022-12-31T08:04:03.115Z,6.98
2022-12-31T08:06:38.521Z,6.97
2022-12-31T08:09:13.694Z,6.94
2022-12-31T08:11:50.663Z,6.93
2022-12-31T08:14:21.427Z,6.96
2022-12-31T08:16:52.708Z,6.99
2022-12-31T08:19:26.930Z,7.08
2022-12-31T08:22:08.207Z,7.11
2022-12-31T08:24:42.744Z,7.16
2022-12-31T08:27:17.495Z,7.21
2022-12-31T08:29:51.507Z,7.23
2022-12-31T08:32:23.874Z,7.26
2022-12-31T08:34:59.957Z,7.31
2022-12-31T08:37:37.655Z,7.33
2022-12-31T08:40:23.318Z,7.37
2022-12-31T08:43:05.162Z,7.38
2022-12-31T08:45:39.431Z,7.36
2022-12-31T08:48:18.365Z,7.39
2022-12-31T08:50:49.574Z,7.41
2022-12-31T08:53:21.565Z,7.39
2022-12-31T08:55:54.975Z,7.41
2022-12-31T08:58:33.876Z,7.42
2022-12-31T09:01:05.729Z,7.38
2022-12-31T09:03:44.613Z,7.36
2022-12-31T09:06:20.994Z,7.31
2022-12-31T09:08:55.701Z,7.29
2022-12-31T09:11:30.936Z,7.31
2022-12-31T09:14:20.990Z,7.30
2022-12-31T09:16:57.928Z,7.34
2022-12-31T09:19:28.160Z,7.33
2022-12-31T09:21:59.314Z,7.33
2022-12-31T09:24:31.606Z,7.38
2022-12-31T09:27:08.305Z,7.31
2022-12-31T09:29:50.556Z,7.33
2022-12-31T09:32:25.089Z,7.34
2022-12-31T09:34:57.102Z,7.33
2022-12-31T09:37:35.246Z,7.33
2022-12-31T09:40:22.416Z,7.33
2022-12-31T09:43:01.492Z,7.36
2022-12-31T09:45:52.134Z,7.38
2022-12-31T09:48:43.219Z,7.42
2022-12-31T09:51:30.961Z,7.43
2022-12-31T09:54:18.281Z,7.43
2022-12-31T09:56:57.167Z,7.46
2022-12-31T09:59:35.045Z,7.49
2022-12-31T10:02:18.252Z,7.50
2022-12-31T10:05:14.436Z,7.53
2022-12-31T10:07:52.821Z,7.51
2022-12-31T10:10:25.434Z,7.52
2022-12-31T10:13:11.692Z,7.54
2022-12-31T10:16:11.647Z,7.54
2022-12-31T10:18:51.865Z,7.58
2022-12-31T10:21:30.018Z,7.57
2022-12-31T10:24:14.395Z,7.56
2022-12-31T10:26:53.563Z,7.54
2022-12-31T10:29:27.341Z,7.53
2022-12-31T10:32:07.606Z,7.49
2022-12-31T10:34:54.209Z,7.46
2022-12-31T10:37:30.927Z,7.43
2022-12-31T10:40:12.613Z,7.41
2022-12-31T10:43:00.478Z,7.41
2022-12-31T10:45:50.168Z,7.39
2022-12-31T10:48:38.952Z,7.38
2022-12-31T10:51:23.957Z,7.41
2022-12-31T10:54:14.523Z,7.39
2022-12-31T10:57:07.378Z,7.39
2022-12-31T10:59:53.187Z,7.42
2022-12-31T11:02:37.813Z,7.42
2022-12-31T11:05:27.126Z,7.45
2022-12-31T11:08:04.467Z,7.45
2022-12-31T11:10:52.407Z,7.47
2022-12-31T11:13:36.014Z,7.48
2022-12-31T11:16:22.139Z,7.49
2022-12-31T11:19:00.996Z,7.50
2022-12-31T11:21:41.988Z,7.52
2022-12-31T11:24:22.375Z,7.50
2022-12-31T11:26:59.770Z,7.52
2022-12-31T11:29:40.407Z,7.56
2022-12-31T11:32:19.391Z,7.59
2022-12-31T11:35:12.947Z,7.60
2022-12-31T11:37:46.987Z,7.65
2022-12-31T11:40:32.011Z,7.66
2022-12-31T11:43:06.745Z,7.69
2022-12-31T11:46:04.684Z,7.71
2022-12-31T11:48:38.396Z,7.76
2022-12-31T11:51:22.906Z,7.79
2022-12-31T11:54:04.159Z,7.85
2022-12-31T11:56:37.047Z,7.87
2022-12-31T11:59:19.067Z,7.90
2022-12-31T12:01:53.979Z,7.91
2022-12-31T12:04:24.346Z,7.97
2022-12-31T12:06:56.511Z,7.99
2022-12-31T12:09:31.432Z,7.99
2022-12-31T12:12:05.759Z,7.98
2022-12-31T12:14:41.601Z,8.01
2022-12-31T12:17:17.101Z,8.03
2022-12-31T12:19:48.984Z,8.03
2022-12-31T12:22:24.515Z,8.01
2022-12-31T12:24:57.794Z,8.03
2022-12-31T12:27:30.794Z,7.84
2022-12-31T12:30:11.783Z,8.09
2022-12-31T12:32:52.825Z,8.12
2022-12-31T12:35:26.907Z,8.12
2022-12-31T12:38:01.296Z,8.12
2022-12-31T12:40:34.369Z,8.13
2022-12-31T12:43:04.612Z,8.15
2022-12-31T12:45:42.331Z,8.16
2022-12-31T12:48:18.418Z,8.17
2022-12-31T12:50:50.060Z,8.17
2022-12-31T12:53:29.418Z,8.21
2022-12-31T12:56:08.982Z,8.23
2022-12-31T12:58:48.695Z,8.26
2022-12-31T13:01:25.599Z,8.31
2022-12-31T13:04:33.452Z,8.38
2022-12-31T13:07:05.084Z,8.44
2022-12-31T13:09:40.824Z,8.48
2022-12-31T13:12:16.419Z,8.56
2022-12-31T13:14:50.193Z,8.62
2022-12-31T13:17:30.596Z,8.71
2022-12-31T13:20:05.350Z,8.91
2022-12-31T13:22:41.922Z,8.98
2022-12-31T13:25:20.801Z,9.06
2022-12-31T13:27:52.883Z,9.09
2022-12-31T13:30:24.972Z,9.17
2022-12-31T13:32:59.690Z,9.19
2022-12-31T13:35:32.893Z,9.21
2022-12-31T13:38:06.041Z,9.19
2022-12-31T13:40:41.956Z,9.27
2022-12-31T13:43:17.132Z,9.30
2022-12-31T13:45:48.992Z,9.28
2022-12-31T13:48:22.951Z,9.36
2022-12-31T13:50:56.981Z,9.32
2022-12-31T13:53:31.090Z,9.37
2022-12-31T13:56:03.858Z,9.37
2022-12-31T13:58:37.259Z,9.41
2022-12-31T14:01:13.077Z,9.41
2022-12-31T14:03:49.818Z,9.42
2022-12-31T14:06:27.000Z,9.42
2022-12-31T14:08:57.177Z,9.43
2022-12-31T14:11:35.320Z,9.58
2022-12-31T14:14:09.850Z,9.65
2022-12-31T14:16:45.188Z,9.67
2022-12-31T14:19:20.222Z,9.68
2022-12-31T14:21:56.029Z,9.69
2022-12-31T14:24:33.802Z,9.71
2022-12-31T14:27:07.123Z,9.82
2022-12-31T14:29:42.092Z,9.93
2022-12-31T14:32:17.419Z,9.94
2022-12-31T14:34:52.535Z,9.99
2022-12-31T14:37:29.983Z,10.13
2022-12-31T14:40:07.760Z,10.14
2022-12-31T14:42:42.499Z,10.19
2022-12-31T14:45:33.518Z,10.24
2022-12-31T14:48:07.961Z,10.29
2022-12-31T14:50:38.431Z,10.31
2022-12-31T14:53:10.902Z,10.36
2022-12-31T14:55:41.503Z,10.52
2022-12-31T14:58:29.621Z,10.49
2022-12-31T15:01:00.998Z,10.46
2022-12-31T15:03:44.758Z,10.53
2022-12-31T15:06:31.549Z,10.64
2022-12-31T15:09:08.709Z,10.65
2022-12-31T15:11:49.314Z,10.62
2022-12-31T15:14:39.330Z,10.67
2022-12-31T15:17:13.924Z,10.66
2022-12-31T15:20:01.779Z,10.66
2022-12-31T15:22:38.636Z,10.75
2022-12-31T15:25:23.807Z,10.74
2022-12-31T15:27:55.912Z,10.70
2022-12-31T15:30:52.942Z,10.72
2022-12-31T15:33:29.312Z,10.86
2022-12-31T15:35:59.508Z,10.89
2022-12-31T15:38:35.294Z,11.02
2022-12-31T15:41:17.260Z,11.04
2022-12-31T15:43:50.797Z,11.10
2022-12-31T15:46:23.219Z,11.03
2022-12-31T15:49:04.188Z,11.03
2022-12-31T15:51:45.468Z,11.15
2022-12-31T15:54:23.079Z,11.10
2022-12-31T15:56:54.978Z,11.09
2022-12-31T15:59:26.495Z,11.12
2022-12-31T16:01:57.280Z,11.12
2022-12-31T16:04:28.630Z,11.14
2022-12-31T16:07:00.797Z,11.16
2022-12-31T16:09:31.999Z,11.22
2022-12-31T16:12:03.937Z,11.16
2022-12-31T16:14:36.858Z,11.18
2022-12-31T16:17:07.209Z,11.26
2022-12-31T16:19:38.317Z,11.33
2022-12-31T16:22:10.808Z,11.25
2022-12-31T16:25:02.704Z,11.22
2022-12-31T16:27:32.135Z,11.26
2022-12-31T16:30:04.965Z,11.37
2022-12-31T16:32:36.224Z,11.34
2022-12-31T16:35:23.726Z,11.34
2022-12-31T16:38:11.732Z,11.41
2022-12-31T16:40:42.638Z,11.48
2022-12-31T16:43:29.049Z,11.53
2022-12-31T16:46:02.968Z,11.52
2022-12-31T16:48:32.675Z,11.61
2022-12-31T16:51:03.145Z,11.62
2022-12-31T16:53:36.496Z,11.64
2022-12-31T16:56:09.110Z,11.60
2022-12-31T16:58:43.096Z,11.73
2022-12-31T17:01:15.623Z,11.81
2022-12-31T17:03:47.562Z,11.82
2022-12-31T17:06:18.820Z,11.81
2022-12-31T17:08:51.477Z,11.87
2022-12-31T17:11:24.590Z,11.91
2022-12-31T17:13:57.066Z,11.98
2022-12-31T17:16:27.471Z,12.01
2022-12-31T17:18:57.247Z,12.07
2022-12-31T17:21:28.951Z,12.06
2022-12-31T17:24:02.147Z,11.99
2022-12-31T17:26:34.003Z,12.06
2022-12-31T17:29:06.251Z,12.13
2022-12-31T17:31:37.695Z,12.12
2022-12-31T17:34:19.313Z,12.08
2022-12-31T17:36:58.865Z,12.13
2022-12-31T17:39:29.262Z,12.11
2022-12-31T17:41:59.621Z,12.09
2022-12-31T17:44:30.810Z,11.96
2022-12-31T17:47:01.023Z,11.98
2022-12-31T17:49:31.618Z,11.91
2022-12-31T17:52:01.723Z,11.94
2022-12-31T17:54:31.367Z,11.97
2022-12-31T17:57:01.552Z,12.11
2022-12-31T17:59:34.942Z,12.12
2022-12-31T18:02:07.869Z,12.15
2022-12-31T18:04:38.680Z,12.20
2022-12-31T18:07:10.016Z,12.41
2022-12-31T18:09:41.663Z,12.38
2022-12-31T18:12:14.954Z,12.32
2022-12-31T18:14:47.792Z,12.40
2022-12-31T18:17:18.012Z,12.30
2022-12-31T18:20:04.801Z,12.15
2022-12-31T18:22:35.670Z,12.11
2022-12-31T18:25:06.994Z,12.08
2022-12-31T18:27:37.563Z,12.00
2022-12-31T18:30:10.395Z,11.90
2022-12-31T18:32:41.446Z,11.95
2022-12-31T18:35:33.267Z,11.97
2022-12-31T18:38:08.028Z,11.92
2022-12-31T18:40:41.071Z,11.92
2022-12-31T18:43:14.572Z,11.91
2022-12-31T18:45:46.078Z,11.87
2022-12-31T18:48:16.473Z,11.87
2022-12-31T18:50:46.633Z,11.87
2022-12-31T18:53:18.151Z,11.88
2022-12-31T18:55:49.968Z,11.85
2022-12-31T18:58:21.432Z,11.80
2022-12-31T19:00:53.250Z,11.87
2022-12-31T19:03:25.120Z,11.85
2022-12-31T19:05:55.459Z,11.85
2022-12-31T19:08:25.956Z,11.83
2022-12-31T19:10:56.328Z,11.82
2022-12-31T19:13:26.890Z,11.81
2022-12-31T19:15:59.123Z,11.92
2022-12-31T19:18:29.691Z,11.95
2022-12-31T19:20:59.881Z,11.86
2022-12-31T19:23:30.092Z,11.91
2022-12-31T19:25:59.814Z,11.83
2022-12-31T19:28:30.190Z,11.83
2022-12-31T19:31:01.892Z,11.74
2022-12-31T19:33:32.887Z,11.81
2022-12-31T19:36:03.351Z,11.81
2022-12-31T19:38:34.270Z,11.75
2022-12-31T19:41:04.412Z,11.74
2022-12-31T19:43:36.914Z,11.73
2022-12-31T19:46:14.984Z,11.78
2022-12-31T19:48:46.753Z,11.78
2022-12-31T19:51:18.420Z,11.75
2022-12-31T19:53:51.598Z,11.77
2022-12-31T19:56:23.793Z,11.73
2022-12-31T19:58:53.842Z,11.69
2022-12-31T20:01:26.092Z,11.74
2022-12-31T20:03:56.762Z,11.77
2022-12-31T20:06:26.675Z,11.75
2022-12-31T20:08:56.726Z,11.66
2022-12-31T20:11:27.082Z,11.65
2022-12-31T20:13:57.143Z,11.62
2022-12-31T20:16:30.046Z,11.59
2022-12-31T20:19:00.248Z,11.53
2022-12-31T20:21:30.428Z,11.56
2022-12-31T20:24:00.511Z,11.48
2022-12-31T20:26:30.280Z,11.50
2022-12-31T20:29:00.327Z,11.50
2022-12-31T20:31:31.643Z,11.49
2022-12-31T20:34:01.791Z,11.45
2022-12-31T20:36:31.638Z,11.41
2022-12-31T20:39:01.870Z,11.38
2022-12-31T20:41:32.493Z,11.38
2022-12-31T20:44:02.602Z,11.32
2022-12-31T20:46:33.820Z,11.29
2022-12-31T20:49:05.278Z,11.30
2022-12-31T20:51:35.735Z,11.27
2022-12-31T20:54:07.233Z,11.22
2022-12-31T20:56:38.124Z,11.23
2022-12-31T20:59:08.763Z,11.16
2022-12-31T21:02:19.551Z,11.15
2022-12-31T21:04:30.786Z,11.18
2022-12-31T21:07:00.649Z,11.17
2022-12-31T21:09:30.797Z,11.18
2022-12-31T21:12:18.277Z,11.11
2022-12-31T21:14:48.419Z,11.08
2022-12-31T21:17:19.611Z,11.10
2022-12-31T21:19:49.795Z,11.04
2022-12-31T21:22:19.443Z,10.70
2022-12-31T21:24:49.618Z,10.94
2022-12-31T21:27:19.384Z,10.96
2022-12-31T21:30:16.956Z,10.94
2022-12-31T21:32:40.695Z,10.92
2022-12-31T21:38:01.953Z,10.80
2022-12-31T21:40:35.262Z,10.83
2022-12-31T21:43:05.105Z,10.76
2022-12-31T21:45:35.731Z,10.77
2022-12-31T21:48:25.279Z,11.10
2022-12-31T21:50:57.153Z,11.10
2022-12-31T21:53:34.148Z,11.17
2022-12-31T21:56:09.227Z,11.23
2022-12-31T21:58:41.563Z,11.33
2022-12-31T22:01:39.000Z,11.37
2022-12-31T22:04:35.301Z,11.52
2022-12-31T22:07:01.028Z,11.49
2022-12-31T22:09:31.054Z,11.50
2022-12-31T22:12:01.644Z,11.52
2022-12-31T22:14:31.474Z,11.56
2022-12-31T22:17:01.750Z,11.58
2022-12-31T22:19:54.663Z,11.61
2022-12-31T22:22:26.678Z,11.70
2022-12-31T22:24:56.988Z,11.68
2022-12-31T22:27:30.035Z,11.71
2022-12-31T22:30:02.021Z,11.69
2022-12-31T22:32:32.461Z,11.69
2022-12-31T22:35:04.972Z,11.65
2022-12-31T22:37:56.403Z,11.62
2022-12-31T22:40:25.114Z,11.66
2022-12-31T22:42:56.337Z,11.58
2022-12-31T22:45:26.249Z,11.59
2022-12-31T22:47:56.664Z,11.71
2022-12-31T22:50:28.057Z,11.61
2022-12-31T22:52:58.415Z,11.64
2022-12-31T22:55:28.749Z,11.61
2022-12-31T22:57:58.929Z,11.60
2022-12-31T23:00:38.833Z,11.60
2022-12-31T23:03:09.550Z,11.57
2022-12-31T23:05:40.804Z,11.59
2022-12-31T23:08:20.577Z,11.63
2022-12-31T23:11:02.153Z,11.58
2022-12-31T23:13:51.478Z,11.56
2022-12-31T23:16:38.511Z,11.58
2022-12-31T23:19:25.922Z,11.55
2022-12-31T23:22:14.668Z,11.62
2022-12-31T23:24:45.152Z,11.58
2022-12-31T23:27:15.502Z,11.64
2022-12-31T23:29:47.499Z,11.64
2022-12-31T23:32:20.557Z,11.64
2022-12-31T23:34:50.813Z,11.63
2022-12-31T23:37:22.489Z,11.59
2022-12-31T23:39:55.032Z,11.56
2022-12-31T23:42:24.771Z,11.45
2022-12-31T23:44:54.983Z,11.43
2022-12-31T23:47:25.008Z,11.46
2022-12-31T23:49:55.434Z,11.42
2022-12-31T23:52:26.953Z,11.38
2022-12-31T23:54:57.567Z,11.46
2022-12-31T23:57:27.357Z,11.44
2022-12-31T23:59:57.667Z,11.42
